sensor_id;sensor_type;location;lat;lon;timestamp;P1;durP1;ratioP1;P2;durP2;ratioP2
76292;SDS011;67256;51.154;4.164;2023-02-11T00:01:26;21.15;;;4.20;;
76292;SDS011;67256;51.154;4.164;2023-02-11T00:03:57;13.27;;;3.55;;
76292;SDS011;67256;51.154;4.164;2023-02-11T00:06:24;27.58;;;5.40;;
76292;SDS011;67256;51.154;4.164;2023-02-11T00:08:52;16.38;;;3.78;;
76292;SDS011;67256;51.154;4.164;2023-02-11T00:11:19;16.67;;;4.00;;
76292;SDS011;67256;51.154;4.164;2023-02-11T00:13:47;14.20;;;3.85;;
76292;SDS011;67256;51.154;4.164;2023-02-11T00:16:15;16.42;;;5.13;;
76292;SDS011;67256;51.154;4.164;2023-02-11T00:18:43;18.65;;;3.83;;
76292;SDS011;67256;51.154;4.164;2023-02-11T00:21:10;16.90;;;4.78;;
76292;SDS011;67256;51.154;4.164;2023-02-11T00:23:37;13.35;;;4.10;;
76292;SDS011;67256;51.154;4.164;2023-02-11T00:26:03;14.68;;;4.43;;
76292;SDS011;67256;51.154;4.164;2023-02-11T00:28:39;14.75;;;4.40;;
76292;SDS011;67256;51.154;4.164;2023-02-11T00:31:06;14.45;;;3.78;;
76292;SDS011;67256;51.154;4.164;2023-02-11T00:33:32;15.40;;;4.75;;
76292;SDS011;67256;51.154;4.164;2023-02-11T00:35:57;13.63;;;4.20;;
76292;SDS011;67256;51.154;4.164;2023-02-11T00:38:27;12.60;;;4.55;;
76292;SDS011;67256;51.154;4.164;2023-02-11T00:40:53;16.35;;;3.70;;
76292;SDS011;67256;51.154;4.164;2023-02-11T00:43:19;18.30;;;4.55;;
76292;SDS011;67256;51.154;4.164;2023-02-11T00:45:44;13.10;;;3.85;;
76292;SDS011;67256;51.154;4.164;2023-02-11T00:48:10;14.68;;;4.45;;
76292;SDS011;67256;51.154;4.164;2023-02-11T00:50:36;18.70;;;3.85;;
76292;SDS011;67256;51.154;4.164;2023-02-11T00:53:03;23.85;;;5.18;;
76292;SDS011;67256;51.154;4.164;2023-02-11T00:55:30;17.13;;;4.40;;
76292;SDS011;67256;51.154;4.164;2023-02-11T00:57:55;17.30;;;5.25;;
76292;SDS011;67256;51.154;4.164;2023-02-11T01:00:22;17.00;;;4.57;;
76292;SDS011;67256;51.154;4.164;2023-02-11T01:02:49;16.33;;;4.68;;
76292;SDS011;67256;51.154;4.164;2023-02-11T01:05:14;13.48;;;4.38;;
76292;SDS011;67256;51.154;4.164;2023-02-11T01:07:40;11.05;;;4.03;;
76292;SDS011;67256;51.154;4.164;2023-02-11T01:10:06;22.00;;;4.60;;
76292;SDS011;67256;51.154;4.164;2023-02-11T01:12:32;10.80;;;3.95;;
76292;SDS011;67256;51.154;4.164;2023-02-11T01:14:58;15.45;;;4.57;;
76292;SDS011;67256;51.154;4.164;2023-02-11T01:17:24;19.30;;;5.80;;
76292;SDS011;67256;51.154;4.164;2023-02-11T01:19:51;21.17;;;5.30;;
76292;SDS011;67256;51.154;4.164;2023-02-11T01:22:17;16.20;;;5.28;;
76292;SDS011;67256;51.154;4.164;2023-02-11T01:24:42;22.38;;;5.15;;
76292;SDS011;67256;51.154;4.164;2023-02-11T01:27:09;13.10;;;4.25;;
76292;SDS011;67256;51.154;4.164;2023-02-11T01:29:35;16.15;;;4.28;;
76292;SDS011;67256;51.154;4.164;2023-02-11T01:32:00;15.02;;;4.95;;
76292;SDS011;67256;51.154;4.164;2023-02-11T01:34:27;19.45;;;4.90;;
76292;SDS011;67256;51.154;4.164;2023-02-11T01:36:59;11.57;;;4.50;;
76292;SDS011;67256;51.154;4.164;2023-02-11T01:39:25;16.45;;;4.15;;
76292;SDS011;67256;51.154;4.164;2023-02-11T01:41:51;16.80;;;4.32;;
76292;SDS011;67256;51.154;4.164;2023-02-11T01:44:25;12.50;;;4.30;;
76292;SDS011;67256;51.154;4.164;2023-02-11T01:46:52;17.00;;;4.75;;
76292;SDS011;67256;51.154;4.164;2023-02-11T01:49:24;11.45;;;4.63;;
76292;SDS011;67256;51.154;4.164;2023-02-11T01:54:22;9.70;;;4.10;;
76292;SDS011;67256;51.154;4.164;2023-02-11T01:57:09;16.95;;;4.28;;
76292;SDS011;67256;51.154;4.164;2023-02-11T02:05:29;15.63;;;5.13;;
76292;SDS011;67256;51.154;4.164;2023-02-11T02:10:56;14.18;;;4.68;;
76292;SDS011;67256;51.154;4.164;2023-02-11T02:13:25;20.88;;;7.00;;
76292;SDS011;67256;51.154;4.164;2023-02-11T02:15:54;13.95;;;4.90;;
76292;SDS011;67256;51.154;4.164;2023-02-11T02:21:19;15.50;;;6.35;;
76292;SDS011;67256;51.154;4.164;2023-02-11T02:29:45;13.00;;;4.78;;
76292;SDS011;67256;51.154;4.164;2023-02-11T02:43:16;19.77;;;6.22;;
76292;SDS011;67256;51.154;4.164;2023-02-11T02:45:43;15.77;;;6.22;;
76292;SDS011;67256;51.154;4.164;2023-02-11T02:48:22;17.27;;;6.07;;
76292;SDS011;67256;51.154;4.164;2023-02-11T02:50:50;14.40;;;6.63;;
76292;SDS011;67256;51.154;4.164;2023-02-11T03:12:37;13.95;;;7.93;;
76292;SDS011;67256;51.154;4.164;2023-02-11T03:15:05;15.45;;;6.63;;
76292;SDS011;67256;51.154;4.164;2023-02-11T03:17:31;13.27;;;6.72;;
76292;SDS011;67256;51.154;4.164;2023-02-11T03:19:59;21.30;;;7.43;;
76292;SDS011;67256;51.154;4.164;2023-02-11T03:22:37;20.63;;;7.20;;
76292;SDS011;67256;51.154;4.164;2023-02-11T03:25:13;18.42;;;8.43;;
76292;SDS011;67256;51.154;4.164;2023-02-11T03:27:46;16.60;;;7.57;;
76292;SDS011;67256;51.154;4.164;2023-02-11T03:33:32;22.83;;;7.85;;
76292;SDS011;67256;51.154;4.164;2023-02-11T03:36:11;21.20;;;7.35;;
76292;SDS011;67256;51.154;4.164;2023-02-11T03:38:43;29.63;;;8.40;;
76292;SDS011;67256;51.154;4.164;2023-02-11T03:41:14;19.20;;;7.53;;
76292;SDS011;67256;51.154;4.164;2023-02-11T03:46:13;21.83;;;7.60;;
76292;SDS011;67256;51.154;4.164;2023-02-11T03:48:51;20.83;;;8.68;;
76292;SDS011;67256;51.154;4.164;2023-02-11T03:51:21;20.30;;;8.93;;
76292;SDS011;67256;51.154;4.164;2023-02-11T03:53:49;23.40;;;8.73;;
76292;SDS011;67256;51.154;4.164;2023-02-11T03:56:19;19.40;;;8.95;;
76292;SDS011;67256;51.154;4.164;2023-02-11T03:58:48;27.20;;;8.48;;
76292;SDS011;67256;51.154;4.164;2023-02-11T04:01:14;17.40;;;8.32;;
76292;SDS011;67256;51.154;4.164;2023-02-11T04:03:40;16.33;;;8.52;;
76292;SDS011;67256;51.154;4.164;2023-02-11T04:06:06;21.63;;;8.77;;
76292;SDS011;67256;51.154;4.164;2023-02-11T04:08:33;18.73;;;8.20;;
76292;SDS011;67256;51.154;4.164;2023-02-11T04:10:58;15.38;;;8.38;;
76292;SDS011;67256;51.154;4.164;2023-02-11T04:13:25;19.83;;;9.82;;
76292;SDS011;67256;51.154;4.164;2023-02-11T04:15:51;17.98;;;8.85;;
76292;SDS011;67256;51.154;4.164;2023-02-11T04:18:16;21.70;;;9.70;;
76292;SDS011;67256;51.154;4.164;2023-02-11T04:20:42;20.60;;;9.48;;
76292;SDS011;67256;51.154;4.164;2023-02-11T04:23:08;18.55;;;8.13;;
76292;SDS011;67256;51.154;4.164;2023-02-11T04:25:34;15.13;;;8.15;;
76292;SDS011;67256;51.154;4.164;2023-02-11T04:28:00;22.95;;;9.02;;
76292;SDS011;67256;51.154;4.164;2023-02-11T04:30:26;20.65;;;9.98;;
76292;SDS011;67256;51.154;4.164;2023-02-11T04:32:52;16.05;;;8.07;;
76292;SDS011;67256;51.154;4.164;2023-02-11T04:35:18;17.30;;;9.30;;
76292;SDS011;67256;51.154;4.164;2023-02-11T04:37:44;15.07;;;8.82;;
76292;SDS011;67256;51.154;4.164;2023-02-11T04:40:10;17.80;;;9.13;;
76292;SDS011;67256;51.154;4.164;2023-02-11T04:42:36;23.98;;;9.55;;
76292;SDS011;67256;51.154;4.164;2023-02-11T04:45:02;20.90;;;10.98;;
76292;SDS011;67256;51.154;4.164;2023-02-11T04:47:28;18.13;;;10.05;;
76292;SDS011;67256;51.154;4.164;2023-02-11T04:49:54;18.65;;;9.73;;
76292;SDS011;67256;51.154;4.164;2023-02-11T04:52:21;19.13;;;9.68;;
76292;SDS011;67256;51.154;4.164;2023-02-11T04:54:46;23.13;;;9.07;;
76292;SDS011;67256;51.154;4.164;2023-02-11T04:57:12;18.15;;;9.90;;
76292;SDS011;67256;51.154;4.164;2023-02-11T04:59:38;23.95;;;9.85;;
76292;SDS011;67256;51.154;4.164;2023-02-11T05:02:04;24.50;;;11.35;;
76292;SDS011;67256;51.154;4.164;2023-02-11T05:04:30;22.48;;;10.05;;
76292;SDS011;67256;51.154;4.164;2023-02-11T05:06:56;22.23;;;11.63;;
76292;SDS011;67256;51.154;4.164;2023-02-11T05:09:22;20.75;;;10.38;;
76292;SDS011;67256;51.154;4.164;2023-02-11T05:11:48;22.45;;;11.40;;
76292;SDS011;67256;51.154;4.164;2023-02-11T05:14:14;18.35;;;10.20;;
76292;SDS011;67256;51.154;4.164;2023-02-11T05:16:39;18.10;;;10.20;;
76292;SDS011;67256;51.154;4.164;2023-02-11T05:19:05;19.30;;;10.43;;
76292;SDS011;67256;51.154;4.164;2023-02-11T05:21:31;21.95;;;10.73;;
76292;SDS011;67256;51.154;4.164;2023-02-11T05:23:57;20.35;;;10.38;;
76292;SDS011;67256;51.154;4.164;2023-02-11T05:26:22;24.88;;;10.82;;
76292;SDS011;67256;51.154;4.164;2023-02-11T05:28:48;19.27;;;9.88;;
76292;SDS011;67256;51.154;4.164;2023-02-11T05:31:14;23.48;;;10.55;;
76292;SDS011;67256;51.154;4.164;2023-02-11T05:33:41;21.55;;;11.98;;
76292;SDS011;67256;51.154;4.164;2023-02-11T05:36:08;22.15;;;11.18;;
76292;SDS011;67256;51.154;4.164;2023-02-11T05:38:36;23.77;;;12.20;;
76292;SDS011;67256;51.154;4.164;2023-02-11T05:41:03;23.45;;;12.55;;
76292;SDS011;67256;51.154;4.164;2023-02-11T05:43:30;19.98;;;12.27;;
76292;SDS011;67256;51.154;4.164;2023-02-11T05:45:56;20.60;;;12.15;;
76292;SDS011;67256;51.154;4.164;2023-02-11T05:48:21;22.65;;;12.00;;
76292;SDS011;67256;51.154;4.164;2023-02-11T05:50:47;18.27;;;11.50;;
76292;SDS011;67256;51.154;4.164;2023-02-11T05:53:13;20.77;;;12.63;;
76292;SDS011;67256;51.154;4.164;2023-02-11T05:55:39;30.27;;;14.52;;
76292;SDS011;67256;51.154;4.164;2023-02-11T05:58:05;25.15;;;12.20;;
76292;SDS011;67256;51.154;4.164;2023-02-11T06:00:32;22.45;;;13.18;;
76292;SDS011;67256;51.154;4.164;2023-02-11T06:02:58;27.08;;;13.48;;
76292;SDS011;67256;51.154;4.164;2023-02-11T06:05:24;23.33;;;11.85;;
76292;SDS011;67256;51.154;4.164;2023-02-11T06:07:50;22.15;;;12.90;;
76292;SDS011;67256;51.154;4.164;2023-02-11T06:10:16;27.73;;;13.23;;
76292;SDS011;67256;51.154;4.164;2023-02-11T06:12:42;24.98;;;13.65;;
76292;SDS011;67256;51.154;4.164;2023-02-11T06:15:09;29.45;;;13.82;;
76292;SDS011;67256;51.154;4.164;2023-02-11T06:17:35;22.85;;;13.10;;
76292;SDS011;67256;51.154;4.164;2023-02-11T06:20:04;25.42;;;15.73;;
76292;SDS011;67256;51.154;4.164;2023-02-11T06:22:31;27.02;;;15.38;;
76292;SDS011;67256;51.154;4.164;2023-02-11T06:24:57;25.58;;;13.77;;
76292;SDS011;67256;51.154;4.164;2023-02-11T06:27:23;33.38;;;14.75;;
76292;SDS011;67256;51.154;4.164;2023-02-11T06:29:49;25.38;;;14.43;;
76292;SDS011;67256;51.154;4.164;2023-02-11T06:32:16;32.53;;;15.68;;
76292;SDS011;67256;51.154;4.164;2023-02-11T06:34:42;30.52;;;15.80;;
76292;SDS011;67256;51.154;4.164;2023-02-11T06:37:09;27.67;;;14.15;;
76292;SDS011;67256;51.154;4.164;2023-02-11T06:39:35;22.95;;;13.95;;
76292;SDS011;67256;51.154;4.164;2023-02-11T06:42:01;26.50;;;15.07;;
76292;SDS011;67256;51.154;4.164;2023-02-11T06:44:28;21.88;;;14.52;;
76292;SDS011;67256;51.154;4.164;2023-02-11T06:46:53;27.30;;;14.02;;
76292;SDS011;67256;51.154;4.164;2023-02-11T06:49:19;25.95;;;14.57;;
76292;SDS011;67256;51.154;4.164;2023-02-11T06:51:45;28.50;;;14.82;;
76292;SDS011;67256;51.154;4.164;2023-02-11T06:54:12;24.02;;;14.32;;
76292;SDS011;67256;51.154;4.164;2023-02-11T06:56:39;25.17;;;15.13;;
76292;SDS011;67256;51.154;4.164;2023-02-11T06:59:06;29.58;;;15.73;;
76292;SDS011;67256;51.154;4.164;2023-02-11T07:01:32;28.42;;;14.55;;
76292;SDS011;67256;51.154;4.164;2023-02-11T07:03:58;27.58;;;15.27;;
76292;SDS011;67256;51.154;4.164;2023-02-11T07:06:24;29.63;;;15.00;;
76292;SDS011;67256;51.154;4.164;2023-02-11T07:08:52;26.23;;;15.25;;
76292;SDS011;67256;51.154;4.164;2023-02-11T07:11:23;24.10;;;14.27;;
76292;SDS011;67256;51.154;4.164;2023-02-11T07:13:50;22.35;;;14.23;;
76292;SDS011;67256;51.154;4.164;2023-02-11T07:16:18;31.38;;;14.45;;
76292;SDS011;67256;51.154;4.164;2023-02-11T07:18:45;28.00;;;14.77;;
76292;SDS011;67256;51.154;4.164;2023-02-11T07:21:12;31.00;;;15.65;;
76292;SDS011;67256;51.154;4.164;2023-02-11T07:23:40;26.58;;;15.85;;
76292;SDS011;67256;51.154;4.164;2023-02-11T07:26:06;25.63;;;15.55;;
76292;SDS011;67256;51.154;4.164;2023-02-11T07:28:37;22.15;;;15.13;;
76292;SDS011;67256;51.154;4.164;2023-02-11T07:31:08;28.58;;;16.23;;
76292;SDS011;67256;51.154;4.164;2023-02-11T07:33:45;25.27;;;15.55;;
76292;SDS011;67256;51.154;4.164;2023-02-11T07:36:11;27.88;;;15.38;;
76292;SDS011;67256;51.154;4.164;2023-02-11T07:38:39;24.70;;;15.27;;
76292;SDS011;67256;51.154;4.164;2023-02-11T07:41:06;29.20;;;15.13;;
76292;SDS011;67256;51.154;4.164;2023-02-11T07:43:34;29.48;;;16.10;;
76292;SDS011;67256;51.154;4.164;2023-02-11T07:46:04;30.27;;;16.10;;
76292;SDS011;67256;51.154;4.164;2023-02-11T07:48:41;25.20;;;16.25;;
76292;SDS011;67256;51.154;4.164;2023-02-11T07:51:08;24.85;;;15.10;;
76292;SDS011;67256;51.154;4.164;2023-02-11T07:53:36;24.27;;;15.38;;
76292;SDS011;67256;51.154;4.164;2023-02-11T07:56:05;25.90;;;15.75;;
76292;SDS011;67256;51.154;4.164;2023-02-11T08:01:03;32.78;;;17.73;;
76292;SDS011;67256;51.154;4.164;2023-02-11T08:03:31;28.38;;;16.85;;
76292;SDS011;67256;51.154;4.164;2023-02-11T08:06:01;28.70;;;18.20;;
76292;SDS011;67256;51.154;4.164;2023-02-11T08:08:29;31.75;;;17.77;;
76292;SDS011;67256;51.154;4.164;2023-02-11T08:10:55;34.85;;;17.73;;
76292;SDS011;67256;51.154;4.164;2023-02-11T08:13:21;27.58;;;18.13;;
76292;SDS011;67256;51.154;4.164;2023-02-11T08:15:47;35.40;;;18.13;;
76292;SDS011;67256;51.154;4.164;2023-02-11T08:18:13;28.90;;;18.42;;
76292;SDS011;67256;51.154;4.164;2023-02-11T08:20:39;25.70;;;17.15;;
76292;SDS011;67256;51.154;4.164;2023-02-11T08:23:06;26.42;;;16.80;;
76292;SDS011;67256;51.154;4.164;2023-02-11T08:25:32;29.27;;;18.63;;
76292;SDS011;67256;51.154;4.164;2023-02-11T08:27:59;30.52;;;18.00;;
76292;SDS011;67256;51.154;4.164;2023-02-11T08:30:26;31.50;;;19.08;;
76292;SDS011;67256;51.154;4.164;2023-02-11T08:32:52;29.52;;;18.63;;
76292;SDS011;67256;51.154;4.164;2023-02-11T08:35:18;28.70;;;18.88;;
76292;SDS011;67256;51.154;4.164;2023-02-11T08:37:44;28.45;;;19.08;;
76292;SDS011;67256;51.154;4.164;2023-02-11T08:40:10;32.83;;;19.60;;
76292;SDS011;67256;51.154;4.164;2023-02-11T08:42:36;32.72;;;19.65;;
76292;SDS011;67256;51.154;4.164;2023-02-11T08:45:02;30.45;;;19.63;;
76292;SDS011;67256;51.154;4.164;2023-02-11T08:47:29;33.90;;;20.85;;
76292;SDS011;67256;51.154;4.164;2023-02-11T08:49:55;33.30;;;20.88;;
76292;SDS011;67256;51.154;4.164;2023-02-11T08:52:21;32.65;;;21.33;;
76292;SDS011;67256;51.154;4.164;2023-02-11T08:54:47;38.05;;;22.48;;
76292;SDS011;67256;51.154;4.164;2023-02-11T08:57:13;38.30;;;22.85;;
76292;SDS011;67256;51.154;4.164;2023-02-11T08:59:39;38.33;;;23.55;;
76292;SDS011;67256;51.154;4.164;2023-02-11T09:02:05;30.52;;;22.38;;
76292;SDS011;67256;51.154;4.164;2023-02-11T09:04:33;33.42;;;22.00;;
76292;SDS011;67256;51.154;4.164;2023-02-11T09:06:59;38.08;;;22.10;;
76292;SDS011;67256;51.154;4.164;2023-02-11T09:09:24;30.58;;;21.55;;
76292;SDS011;67256;51.154;4.164;2023-02-11T09:11:50;38.35;;;23.25;;
76292;SDS011;67256;51.154;4.164;2023-02-11T09:14:21;39.58;;;23.48;;
76292;SDS011;67256;51.154;4.164;2023-02-11T09:16:49;34.78;;;22.85;;
76292;SDS011;67256;51.154;4.164;2023-02-11T09:19:16;34.83;;;22.15;;
76292;SDS011;67256;51.154;4.164;2023-02-11T09:21:42;41.88;;;23.55;;
76292;SDS011;67256;51.154;4.164;2023-02-11T09:24:08;40.90;;;24.58;;
76292;SDS011;67256;51.154;4.164;2023-02-11T09:26:35;41.22;;;24.77;;
76292;SDS011;67256;51.154;4.164;2023-02-11T09:29:02;39.60;;;26.25;;
76292;SDS011;67256;51.154;4.164;2023-02-11T09:31:30;40.17;;;23.48;;
76292;SDS011;67256;51.154;4.164;2023-02-11T09:34:01;40.45;;;23.73;;
76292;SDS011;67256;51.154;4.164;2023-02-11T09:36:30;36.83;;;24.08;;
76292;SDS011;67256;51.154;4.164;2023-02-11T09:38:58;36.17;;;22.57;;
76292;SDS011;67256;51.154;4.164;2023-02-11T09:44:34;39.57;;;24.17;;
76292;SDS011;67256;51.154;4.164;2023-02-11T09:49:48;36.50;;;24.58;;
76292;SDS011;67256;51.154;4.164;2023-02-11T09:54:58;41.85;;;25.70;;
76292;SDS011;67256;51.154;4.164;2023-02-11T09:57:33;38.05;;;27.48;;
76292;SDS011;67256;51.154;4.164;2023-02-11T10:00:02;48.47;;;27.48;;
76292;SDS011;67256;51.154;4.164;2023-02-11T10:02:55;36.78;;;26.52;;
76292;SDS011;67256;51.154;4.164;2023-02-11T10:08:06;42.30;;;28.00;;
76292;SDS011;67256;51.154;4.164;2023-02-11T10:10:51;39.33;;;25.73;;
76292;SDS011;67256;51.154;4.164;2023-02-11T10:24:02;46.25;;;29.63;;
76292;SDS011;67256;51.154;4.164;2023-02-11T10:26:35;40.63;;;27.83;;
76292;SDS011;67256;51.154;4.164;2023-02-11T10:29:04;44.47;;;29.02;;
76292;SDS011;67256;51.154;4.164;2023-02-11T10:31:58;44.03;;;30.50;;
76292;SDS011;67256;51.154;4.164;2023-02-11T10:36:53;46.75;;;31.48;;
76292;SDS011;67256;51.154;4.164;2023-02-11T10:39:20;48.72;;;30.13;;
76292;SDS011;67256;51.154;4.164;2023-02-11T10:41:54;47.33;;;30.35;;
76292;SDS011;67256;51.154;4.164;2023-02-11T10:44:26;44.55;;;30.70;;
76292;SDS011;67256;51.154;4.164;2023-02-11T10:49:43;42.45;;;30.20;;
76292;SDS011;67256;51.154;4.164;2023-02-11T10:57:22;42.80;;;29.23;;
76292;SDS011;67256;51.154;4.164;2023-02-11T10:59:56;43.30;;;30.08;;
76292;SDS011;67256;51.154;4.164;2023-02-11T11:02:28;44.42;;;29.27;;
76292;SDS011;67256;51.154;4.164;2023-02-11T11:05:00;42.13;;;29.30;;
76292;SDS011;67256;51.154;4.164;2023-02-11T11:07:30;42.15;;;28.27;;
76292;SDS011;67256;51.154;4.164;2023-02-11T11:10:05;42.25;;;28.02;;
76292;SDS011;67256;51.154;4.164;2023-02-11T11:12:49;40.65;;;27.02;;
76292;SDS011;67256;51.154;4.164;2023-02-11T11:17:45;41.10;;;27.55;;
76292;SDS011;67256;51.154;4.164;2023-02-11T11:22:39;40.28;;;26.30;;
76292;SDS011;67256;51.154;4.164;2023-02-11T11:25:28;42.10;;;27.15;;
76292;SDS011;67256;51.154;4.164;2023-02-11T11:27:56;36.78;;;26.15;;
76292;SDS011;67256;51.154;4.164;2023-02-11T11:30:32;45.60;;;27.67;;
76292;SDS011;67256;51.154;4.164;2023-02-11T11:33:17;40.13;;;25.48;;
76292;SDS011;67256;51.154;4.164;2023-02-11T11:35:54;36.53;;;25.80;;
76292;SDS011;67256;51.154;4.164;2023-02-11T11:38:34;35.20;;;24.02;;
76292;SDS011;67256;51.154;4.164;2023-02-11T11:46:46;36.08;;;24.92;;
76292;SDS011;67256;51.154;4.164;2023-02-11T11:49:27;37.58;;;26.02;;
76292;SDS011;67256;51.154;4.164;2023-02-11T11:54:44;38.15;;;24.30;;
76292;SDS011;67256;51.154;4.164;2023-02-11T11:57:15;34.38;;;24.65;;
76292;SDS011;67256;51.154;4.164;2023-02-11T11:59:45;39.42;;;24.98;;
76292;SDS011;67256;51.154;4.164;2023-02-11T12:07:17;40.15;;;25.02;;
76292;SDS011;67256;51.154;4.164;2023-02-11T12:12:41;33.50;;;24.85;;
76292;SDS011;67256;51.154;4.164;2023-02-11T12:15:41;35.50;;;24.67;;
76292;SDS011;67256;51.154;4.164;2023-02-11T12:26:23;35.88;;;25.45;;
76292;SDS011;67256;51.154;4.164;2023-02-11T12:37:17;36.80;;;26.13;;
76292;SDS011;67256;51.154;4.164;2023-02-11T12:53:49;36.67;;;26.10;;
76292;SDS011;67256;51.154;4.164;2023-02-11T12:59:13;35.60;;;25.58;;
76292;SDS011;67256;51.154;4.164;2023-02-11T13:01:46;33.33;;;23.60;;
76292;SDS011;67256;51.154;4.164;2023-02-11T13:07:02;36.45;;;24.92;;
76292;SDS011;67256;51.154;4.164;2023-02-11T13:09:44;35.47;;;24.98;;
76292;SDS011;67256;51.154;4.164;2023-02-11T13:12:17;36.22;;;24.90;;
76292;SDS011;67256;51.154;4.164;2023-02-11T13:15:03;42.70;;;25.67;;
76292;SDS011;67256;51.154;4.164;2023-02-11T13:17:39;37.92;;;25.73;;
76292;SDS011;67256;51.154;4.164;2023-02-11T13:23:11;38.85;;;25.38;;
76292;SDS011;67256;51.154;4.164;2023-02-11T13:25:43;34.35;;;24.98;;
76292;SDS011;67256;51.154;4.164;2023-02-11T13:28:32;37.95;;;25.48;;
76292;SDS011;67256;51.154;4.164;2023-02-11T13:31:09;35.20;;;25.50;;
76292;SDS011;67256;51.154;4.164;2023-02-11T13:33:41;38.20;;;25.17;;
76292;SDS011;67256;51.154;4.164;2023-02-11T13:38:35;39.15;;;25.02;;
76292;SDS011;67256;51.154;4.164;2023-02-11T13:46:28;45.95;;;27.75;;
76292;SDS011;67256;51.154;4.164;2023-02-11T13:49:16;38.42;;;27.33;;
76292;SDS011;67256;51.154;4.164;2023-02-11T13:51:47;40.78;;;26.33;;
76292;SDS011;67256;51.154;4.164;2023-02-11T13:54:21;39.63;;;27.27;;
76292;SDS011;67256;51.154;4.164;2023-02-11T13:59:51;40.00;;;26.83;;
76292;SDS011;67256;51.154;4.164;2023-02-11T14:02:34;38.17;;;27.02;;
76292;SDS011;67256;51.154;4.164;2023-02-11T14:05:32;36.05;;;26.38;;
76292;SDS011;67256;51.154;4.164;2023-02-11T14:08:18;37.50;;;26.92;;
76292;SDS011;67256;51.154;4.164;2023-02-11T14:11:40;40.33;;;26.48;;
76292;SDS011;67256;51.154;4.164;2023-02-11T14:19:30;35.10;;;26.30;;
76292;SDS011;67256;51.154;4.164;2023-02-11T14:22:01;37.08;;;26.02;;
76292;SDS011;67256;51.154;4.164;2023-02-11T14:27:04;40.10;;;26.20;;
76292;SDS011;67256;51.154;4.164;2023-02-11T14:29:40;47.88;;;28.05;;
76292;SDS011;67256;51.154;4.164;2023-02-11T14:44:33;39.28;;;27.25;;
76292;SDS011;67256;51.154;4.164;2023-02-11T14:46:48;42.58;;;28.55;;
76292;SDS011;67256;51.154;4.164;2023-02-11T14:49:20;42.47;;;28.88;;
76292;SDS011;67256;51.154;4.164;2023-02-11T14:51:51;37.38;;;28.10;;
76292;SDS011;67256;51.154;4.164;2023-02-11T14:57:05;38.55;;;27.85;;
76292;SDS011;67256;51.154;4.164;2023-02-11T14:59:31;42.17;;;27.83;;
76292;SDS011;67256;51.154;4.164;2023-02-11T15:01:57;38.75;;;27.10;;
76292;SDS011;67256;51.154;4.164;2023-02-11T15:04:27;38.90;;;27.42;;
76292;SDS011;67256;51.154;4.164;2023-02-11T15:06:56;37.92;;;27.20;;
76292;SDS011;67256;51.154;4.164;2023-02-11T15:11:56;39.83;;;28.10;;
76292;SDS011;67256;51.154;4.164;2023-02-11T15:14:27;44.13;;;27.63;;
76292;SDS011;67256;51.154;4.164;2023-02-11T15:16:57;43.17;;;27.15;;
76292;SDS011;67256;51.154;4.164;2023-02-11T15:19:28;41.78;;;27.17;;
76292;SDS011;67256;51.154;4.164;2023-02-11T15:22:00;41.00;;;27.73;;
76292;SDS011;67256;51.154;4.164;2023-02-11T15:24:32;41.90;;;26.98;;
76292;SDS011;67256;51.154;4.164;2023-02-11T15:29:40;40.33;;;27.58;;
76292;SDS011;67256;51.154;4.164;2023-02-11T15:34:35;38.53;;;25.15;;
76292;SDS011;67256;51.154;4.164;2023-02-11T15:37:02;36.55;;;25.48;;
76292;SDS011;67256;51.154;4.164;2023-02-11T15:39:29;38.65;;;24.60;;
76292;SDS011;67256;51.154;4.164;2023-02-11T15:45:06;39.30;;;23.73;;
76292;SDS011;67256;51.154;4.164;2023-02-11T15:47:38;34.88;;;24.58;;
76292;SDS011;67256;51.154;4.164;2023-02-11T15:50:06;37.08;;;23.05;;
76292;SDS011;67256;51.154;4.164;2023-02-11T15:52:43;34.45;;;23.13;;
76292;SDS011;67256;51.154;4.164;2023-02-11T15:55:12;37.65;;;24.30;;
76292;SDS011;67256;51.154;4.164;2023-02-11T15:57:53;33.33;;;22.85;;
76292;SDS011;67256;51.154;4.164;2023-02-11T16:00:21;37.25;;;24.48;;
76292;SDS011;67256;51.154;4.164;2023-02-11T16:02:51;33.35;;;23.40;;
76292;SDS011;67256;51.154;4.164;2023-02-11T16:05:26;37.40;;;24.08;;
76292;SDS011;67256;51.154;4.164;2023-02-11T16:07:54;30.42;;;22.80;;
76292;SDS011;67256;51.154;4.164;2023-02-11T16:12:58;35.13;;;24.40;;
76292;SDS011;67256;51.154;4.164;2023-02-11T16:17:58;34.83;;;24.52;;
76292;SDS011;67256;51.154;4.164;2023-02-11T16:20:27;38.25;;;24.70;;
76292;SDS011;67256;51.154;4.164;2023-02-11T16:22:53;36.25;;;24.48;;
76292;SDS011;67256;51.154;4.164;2023-02-11T16:25:20;37.25;;;24.92;;
76292;SDS011;67256;51.154;4.164;2023-02-11T16:27:47;31.45;;;23.58;;
76292;SDS011;67256;51.154;4.164;2023-02-11T16:32:51;35.08;;;25.05;;
76292;SDS011;67256;51.154;4.164;2023-02-11T16:35:18;33.15;;;24.75;;
76292;SDS011;67256;51.154;4.164;2023-02-11T16:37:44;38.55;;;25.45;;
76292;SDS011;67256;51.154;4.164;2023-02-11T16:40:10;37.03;;;24.55;;
76292;SDS011;67256;51.154;4.164;2023-02-11T16:42:36;37.92;;;25.30;;
76292;SDS011;67256;51.154;4.164;2023-02-11T16:45:02;36.08;;;23.05;;
76292;SDS011;67256;51.154;4.164;2023-02-11T16:47:28;36.92;;;24.27;;
76292;SDS011;67256;51.154;4.164;2023-02-11T16:49:57;42.80;;;25.33;;
76292;SDS011;67256;51.154;4.164;2023-02-11T16:52:25;38.97;;;25.13;;
76292;SDS011;67256;51.154;4.164;2023-02-11T16:54:51;37.42;;;24.63;;
76292;SDS011;67256;51.154;4.164;2023-02-11T16:57:20;36.75;;;26.55;;
76292;SDS011;67256;51.154;4.164;2023-02-11T16:59:48;35.88;;;25.00;;
76292;SDS011;67256;51.154;4.164;2023-02-11T17:04:42;38.05;;;25.35;;
76292;SDS011;67256;51.154;4.164;2023-02-11T17:07:08;32.50;;;24.83;;
76292;SDS011;67256;51.154;4.164;2023-02-11T17:09:34;34.05;;;24.65;;
76292;SDS011;67256;51.154;4.164;2023-02-11T17:12:00;34.40;;;24.05;;
76292;SDS011;67256;51.154;4.164;2023-02-11T17:14:26;36.72;;;24.30;;
76292;SDS011;67256;51.154;4.164;2023-02-11T17:16:52;36.05;;;24.33;;
76292;SDS011;67256;51.154;4.164;2023-02-11T17:19:18;37.85;;;24.50;;
76292;SDS011;67256;51.154;4.164;2023-02-11T17:21:48;31.63;;;24.30;;
76292;SDS011;67256;51.154;4.164;2023-02-11T17:24:16;34.72;;;23.48;;
76292;SDS011;67256;51.154;4.164;2023-02-11T17:26:42;38.60;;;25.65;;
76292;SDS011;67256;51.154;4.164;2023-02-11T17:29:11;36.67;;;27.15;;
76292;SDS011;67256;51.154;4.164;2023-02-11T17:31:39;40.70;;;26.23;;
76292;SDS011;67256;51.154;4.164;2023-02-11T17:34:06;33.38;;;23.92;;
76292;SDS011;67256;51.154;4.164;2023-02-11T17:36:32;34.85;;;24.05;;
76292;SDS011;67256;51.154;4.164;2023-02-11T17:39:00;37.67;;;24.73;;
76292;SDS011;67256;51.154;4.164;2023-02-11T17:41:27;35.78;;;23.42;;
76292;SDS011;67256;51.154;4.164;2023-02-11T17:43:56;32.90;;;23.13;;
76292;SDS011;67256;51.154;4.164;2023-02-11T17:46:22;36.83;;;24.45;;
76292;SDS011;67256;51.154;4.164;2023-02-11T17:48:49;39.08;;;26.05;;
76292;SDS011;67256;51.154;4.164;2023-02-11T17:53:55;36.20;;;24.50;;
76292;SDS011;67256;51.154;4.164;2023-02-11T17:56:22;32.55;;;23.83;;
76292;SDS011;67256;51.154;4.164;2023-02-11T17:58:48;39.17;;;23.92;;
76292;SDS011;67256;51.154;4.164;2023-02-11T18:01:14;35.67;;;24.10;;
76292;SDS011;67256;51.154;4.164;2023-02-11T18:03:40;32.10;;;23.35;;
76292;SDS011;67256;51.154;4.164;2023-02-11T18:06:06;37.13;;;23.92;;